Time;durP1;ratioP1;P1;durP2;ratioP2;P2;SDS_P1;SDS_P2;PMS_P1;PMS_P2;Temp;Humidity;BMP_temperature;BMP_pressure;BME280_temperature;BME280_humidity;BME280_pressure;Samples;Min_cycle;Max_cycle;Signal;HPM_P1;HPM_P2
2021/06/29 00:01:16;;;;;;;;;;;;;;;25.86;64.57;99775.31;5131651;28;19912;-38
2021/06/29 00:03:42;;;;;;;;;;;;;;;25.80;65.10;99786.63;5131698;27;19934;-38
2021/06/29 00:06:07;;;;;;;;;;;;;;;25.83;65.00;99780.56;5131663;28;19912;-37
2021/06/29 00:08:32;;;;;;;;;;;;;;;25.90;64.81;99778.25;5131100;28;20347;-38
2021/06/29 00:10:58;;;;;;;;;;;;;;;26.56;62.48;99776.00;5131559;28;19916;-39
2021/06/29 00:13:23;;;;;;;;;;;;;;;26.24;62.70;99775.09;5131723;28;20450;-38
2021/06/29 00:15:48;;;;;;;;;;;;;;;26.00;62.83;99778.06;5131405;28;19911;-38
2021/06/29 00:18:14;;;;;;;;;;;;;;;25.81;62.73;99774.63;5132368;27;19951;-38
2021/06/29 00:20:39;;;;;;;;;;;;;;;26.02;61.20;99780.47;5129365;27;19911;-38
2021/06/29 00:23:04;;;;;;;;;;;;;;;26.16;59.93;99766.81;5114977;28;20394;-38
2021/06/29 00:25:30;;;;;;;;;;;;;;;26.71;57.28;99764.75;5114766;28;19912;-39
2021/06/29 00:27:55;;;;;;;;;;;;;;;25.95;58.22;99770.00;5115190;28;19911;-38
2021/06/29 00:30:20;;;;;;;;;;;;;;;25.85;58.03;99772.91;5115032;28;19916;-37
2021/06/29 00:32:46;;;;;;;;;;;;;;;25.61;58.85;99765.75;5115162;28;20264;-37
2021/06/29 00:35:11;;;;;;;;;;;;;;;25.70;57.99;99765.84;5114850;28;19918;-38
2021/06/29 00:37:37;;;;;;;;;;;;;;;26.05;56.47;99758.88;5115063;28;19911;-37
2021/06/29 00:40:05;;;;;;;;;;;;;;;26.58;54.56;99762.84;5096514;28;19918;-39
2021/06/29 00:42:31;;;;;;;;;;;;;;;25.75;56.91;99768.47;5115390;28;20373;-38
2021/06/29 00:44:56;;;;;;;;;;;;;;;25.54;57.28;99762.63;5115352;28;20422;-37
2021/06/29 00:47:21;;;;;;;;;;;;;;;25.69;56.74;99767.78;5115557;28;19912;-38
2021/06/29 00:49:47;;;;;;;;;;;;;;;25.56;56.95;99765.84;5115090;28;19938;-38
2021/06/29 00:52:12;;;;;;;;;;;;;;;26.20;55.28;99763.19;5115146;28;19919;-38
2021/06/29 00:54:38;;;;;;;;;;;;;;;25.92;55.79;99760.50;5115477;28;19919;-38
2021/06/29 00:57:03;;;;;;;;;;;;;;;25.53;56.77;99756.38;5115279;28;20364;-38
2021/06/29 00:59:28;;;;;;;;;;;;;;;25.29;57.43;99753.84;5114917;28;20303;-37
2021/06/29 01:01:54;;;;;;;;;;;;;;;25.46;57.02;99753.25;5096722;28;19922;-38
2021/06/29 01:04:19;;;;;;;;;;;;;;;25.46;56.89;99753.25;5115164;28;19919;-37
2021/06/29 01:06:44;;;;;;;;;;;;;;;26.38;53.72;99741.50;5114879;28;19947;-37
2021/06/29 01:09:10;;;;;;;;;;;;;;;25.72;55.78;99750.81;5127583;27;19912;-37
2021/06/29 01:11:35;;;;;;;;;;;;;;;25.38;57.05;99756.69;5135781;27;19911;-38
2021/06/29 01:14:13;;;;;;;;;;;;;;;25.30;57.10;99760.91;5135639;27;19912;-38
2021/06/29 01:16:38;;;;;;;;;;;;;;;25.31;57.54;99756.28;5135454;27;20289;-38
2021/06/29 01:19:03;;;;;;;;;;;;;;;25.74;56.39;99754.06;5135153;27;20007;-38
2021/06/29 01:21:30;;;;;;;;;;;;;;;26.12;55.28;99748.38;5122127;27;19911;-38
2021/06/29 01:23:57;;;;;;;;;;;;;;;25.50;57.41;99756.19;5114974;28;20018;-38
2021/06/29 01:26:25;;;;;;;;;;;;;;;25.30;57.83;99763.63;5114778;28;19915;-38
2021/06/29 01:29:04;;;;;;;;;;;;;;;25.43;57.93;99753.84;5114715;28;20345;-38
2021/06/29 01:31:30;;;;;;;;;;;;;;;25.70;57.24;99763.13;5114394;28;20326;-39
2021/06/29 01:33:55;;;;;;;;;;;;;;;26.36;55.33;99755.44;5114877;28;20006;-38
2021/06/29 01:36:21;;;;;;;;;;;;;;;25.74;57.10;99758.66;5114847;28;19916;-38
2021/06/29 01:38:47;;;;;;;;;;;;;;;25.45;57.86;99759.78;5114838;28;20395;-38
2021/06/29 01:41:13;;;;;;;;;;;;;;;25.48;58.32;99755.69;5114609;28;19950;-38
2021/06/29 01:44:01;;;;;;;;;;;;;;;25.42;58.47;99760.41;5114664;28;19912;-38
2021/06/29 01:46:30;;;;;;;;;;;;;;;25.62;58.43;99758.38;5114276;28;19960;-39
2021/06/29 01:48:55;;;;;;;;;;;;;;;25.96;57.30;99752.53;5114201;28;19915;-39
2021/06/29 01:51:21;;;;;;;;;;;;;;;25.38;59.02;99767.59;5114356;28;19972;-38
2021/06/29 01:53:47;;;;;;;;;;;;;;;25.46;59.19;99774.25;5113883;28;19935;-42
2021/06/29 01:56:16;;;;;;;;;;;;;;;25.32;59.87;99758.69;5095759;28;20304;-39
2021/06/29 01:58:50;;;;;;;;;;;;;;;25.53;59.13;99766.44;5113961;28;20292;-38
2021/06/29 02:01:15;;;;;;;;;;;;;;;26.18;57.22;99770.88;5114112;28;19918;-37
2021/06/29 02:03:41;;;;;;;;;;;;;;;25.33;59.83;99762.22;5114070;28;19998;-37
2021/06/29 02:06:06;;;;;;;;;;;;;;;25.21;60.61;99767.31;5114048;28;19919;-37
2021/06/29 02:08:31;;;;;;;;;;;;;;;25.18;60.77;99766.00;5113898;28;19912;-37
2021/06/29 02:10:56;;;;;;;;;;;;;;;25.27;60.24;99769.69;5114005;28;19923;-38
2021/06/29 02:13:22;;;;;;;;;;;;;;;25.65;58.91;99771.41;5116901;27;19926;-39
2021/06/29 02:15:47;;;;;;;;;;;;;;;25.87;58.41;99776.94;5134434;27;19915;-38
2021/06/29 02:18:12;;;;;;;;;;;;;;;25.47;59.84;99773.13;5134188;27;19924;-38
2021/06/29 02:20:37;;;;;;;;;;;;;;;25.14;60.98;99776.69;5127995;27;20367;-38
2021/06/29 02:23:04;;;;;;;;;;;;;;;25.09;61.24;99774.06;5113621;28;19918;-39
2021/06/29 02:25:29;;;;;;;;;;;;;;;24.94;61.67;99769.69;5113507;28;19987;-38
2021/06/29 02:27:55;;;;;;;;;;;;;;;25.47;59.80;99767.66;5113555;28;20262;-38
2021/06/29 02:30:20;;;;;;;;;;;;;;;25.12;60.98;99772.66;5113487;28;19949;-37
2021/06/29 02:32:45;;;;;;;;;;;;;;;24.89;61.48;99764.31;5113213;28;19912;-38
2021/06/29 02:35:11;;;;;;;;;;;;;;;24.77;62.02;99772.97;5095010;28;19919;-38
2021/06/29 02:37:36;;;;;;;;;;;;;;;24.72;61.85;99772.25;5113199;28;19919;-38
2021/06/29 02:40:02;;;;;;;;;;;;;;;24.69;61.72;99762.75;5113204;28;20006;-37
2021/06/29 02:42:27;;;;;;;;;;;;;;;24.83;61.36;99770.97;5112310;28;20002;-37
2021/06/29 02:44:53;;;;;;;;;;;;;;;24.70;61.52;99777.97;5112856;28;20382;-38
2021/06/29 02:47:18;;;;;;;;;;;;;;;24.52;62.03;99779.63;5113369;28;19995;-38
2021/06/29 02:49:43;;;;;;;;;;;;;;;24.57;61.58;99784.16;5112905;28;19923;-38
2021/06/29 02:52:09;;;;;;;;;;;;;;;24.39;61.64;99755.88;5112771;28;20018;-39
2021/06/29 02:54:34;;;;;;;;;;;;;;;24.48;61.79;99783.97;5113131;28;20344;-39
2021/06/29 02:56:59;;;;;;;;;;;;;;;24.47;61.76;99781.59;5112722;28;19935;-39
2021/06/29 02:59:25;;;;;;;;;;;;;;;24.47;61.90;99782.38;5112202;28;19992;-37
2021/06/29 03:01:51;;;;;;;;;;;;;;;24.53;61.79;99781.22;5112428;28;19911;-38
2021/06/29 03:04:16;;;;;;;;;;;;;;;24.61;61.70;99778.94;5112086;28;20295;-38
2021/06/29 03:06:41;;;;;;;;;;;;;;;24.57;61.97;99790.41;5112093;28;19919;-38
2021/06/29 03:09:07;;;;;;;;;;;;;;;24.57;61.76;99781.44;5124245;27;19912;-38
2021/06/29 03:11:32;;;;;;;;;;;;;;;24.74;60.52;99789.06;5132847;27;19963;-38
2021/06/29 03:13:57;;;;;;;;;;;;;;;24.46;61.20;99778.03;5132447;27;19984;-38
2021/06/29 03:16:23;;;;;;;;;;;;;;;24.44;61.79;99774.81;5132278;27;19916;-37
2021/06/29 03:18:48;;;;;;;;;;;;;;;24.53;61.40;99778.50;5132162;27;19931;-38
2021/06/29 03:21:14;;;;;;;;;;;;;;;25.27;59.47;99779.78;5121397;27;19916;-38
2021/06/29 03:23:39;;;;;;;;;;;;;;;24.76;60.12;99779.50;5111328;28;19918;-38
2021/06/29 03:26:04;;;;;;;;;;;;;;;24.63;61.02;99780.25;5111072;28;20014;-39
2021/06/29 03:28:30;;;;;;;;;;;;;;;24.51;61.24;99779.88;5110949;28;19912;-38
2021/06/29 03:30:55;;;;;;;;;;;;;;;24.48;61.03;99770.38;5113567;27;19920;-38
2021/06/29 03:33:20;;;;;;;;;;;;;;;24.51;60.69;99778.00;5110206;28;19911;-38
2021/06/29 03:35:46;;;;;;;;;;;;;;;25.15;58.24;99772.03;5110372;28;20425;-37
2021/06/29 03:38:11;;;;;;;;;;;;;;;25.05;57.82;99773.03;5110800;28;19951;-38
2021/06/29 03:40:36;;;;;;;;;;;;;;;24.93;58.53;99773.50;5110942;28;19918;-38
2021/06/29 03:43:01;;;;;;;;;;;;;;;24.77;58.91;99781.13;5110843;28;19934;-38
2021/06/29 03:45:27;;;;;;;;;;;;;;;24.81;58.81;99778.63;5110621;28;19912;-38
2021/06/29 03:47:52;;;;;;;;;;;;;;;25.05;57.64;99772.22;5111167;28;20278;-38
2021/06/29 03:50:17;;;;;;;;;;;;;;;25.19;57.54;99770.34;5105057;28;19920;-38
2021/06/29 03:52:43;;;;;;;;;;;;;;;25.21;57.21;99775.47;5090871;28;19924;-51
2021/06/29 03:55:08;;;;;;;;;;;;;;;25.34;56.57;99770.09;5091009;28;19950;-51
2021/06/29 03:57:33;;;;;;;;;;;;;;;25.38;55.62;99764.03;5090683;28;19918;-50
2021/06/29 03:59:59;;;;;;;;;;;;;;;26.07;53.67;99767.56;5090824;28;19924;-38
2021/06/29 04:02:24;;;;;;;;;;;;;;;25.64;55.26;99775.25;5090944;28;20010;-53
2021/06/29 04:04:50;;;;;;;;;;;;;;;25.26;56.16;99784.38;5090807;28;19912;-53
2021/06/29 04:07:16;;;;;;;;;;;;;;;25.42;56.25;99781.38;5090654;28;19912;-52
2021/06/29 04:09:41;;;;;;;;;;;;;;;25.50;55.98;99781.50;5090319;28;19923;-52
2021/06/29 04:12:07;;;;;;;;;;;;;;;25.55;55.41;99781.41;5090432;28;20023;-37
2021/06/29 04:14:32;;;;;;;;;;;;;;;26.31;53.37;99783.66;5090311;28;20359;-39
2021/06/29 04:16:57;;;;;;;;;;;;;;;26.32;52.56;99781.72;5090612;28;19916;-39
2021/06/29 04:19:23;;;;;;;;;;;;;;;26.40;52.46;99781.00;5091144;28;19912;-39
2021/06/29 04:21:48;;;;;;;;;;;;;;;26.79;51.28;99773.28;5090460;28;20344;-38
2021/06/29 04:24:13;;;;;;;;;;;;;;;27.05;50.78;99776.97;5090413;28;19940;-39
2021/06/29 04:26:39;;;;;;;;;;;;;;;27.56;48.86;99782.22;5089507;28;19955;-39
2021/06/29 04:29:04;;;;;;;;;;;;;;;28.62;46.98;99780.19;5089925;28;19912;-39
2021/06/29 04:31:29;;;;;;;;;;;;;;;28.37;46.42;99779.03;5090154;28;19920;-39
2021/06/29 04:33:55;;;;;;;;;;;;;;;28.49;46.43;99783.06;5090647;28;20004;-52
2021/06/29 04:36:20;;;;;;;;;;;;;;;28.68;45.84;99786.28;5090469;28;20369;-54
2021/06/29 04:38:45;;;;;;;;;;;;;;;29.12;45.02;99784.25;5090336;28;20022;-53
2021/06/29 04:41:10;;;;;;;;;;;;;;;29.44;43.82;99785.63;5090085;28;19913;-52
2021/06/29 04:43:38;;;;;;;;;;;;;;;29.70;42.72;99783.88;5090471;28;19913;-52
2021/06/29 04:46:03;;;;;;;;;;;;;;;29.42;43.66;99784.38;5089809;28;19919;-52
2021/06/29 04:48:28;;;;;;;;;;;;;;;29.50;43.63;99780.78;5089899;28;19912;-52
2021/06/29 04:50:54;;;;;;;;;;;;;;;29.76;42.71;99783.41;5089133;28;19927;-51
2021/06/29 04:53:19;;;;;;;;;;;;;;;29.82;43.11;99789.50;5089576;28;19947;-52
2021/06/29 04:55:44;;;;;;;;;;;;;;;30.33;42.13;99787.59;5089732;28;20077;-52
2021/06/29 04:58:10;;;;;;;;;;;;;;;30.28;41.86;99789.69;5089566;28;19919;-52
2021/06/29 05:00:37;;;;;;;;;;;;;;;30.26;42.54;99792.78;5071495;28;19956;-51
2021/06/29 05:03:03;;;;;;;;;;;;;;;30.39;42.05;99788.97;5089783;28;20248;-51
2021/06/29 05:05:29;;;;;;;;;;;;;;;30.55;41.26;99788.38;5092969;28;19912;-53
2021/06/29 05:07:54;;;;;;;;;;;;;;;30.85;40.74;99782.75;5093318;28;20010;-53
2021/06/29 05:10:19;;;;;;;;;;;;;;;31.45;39.51;99788.72;5093345;28;19916;-51
2021/06/29 05:12:48;;;;;;;;;;;;;;;31.13;39.97;99783.78;5093388;28;19923;-51
2021/06/29 05:15:13;;;;;;;;;;;;;;;31.44;38.75;99781.63;5093701;28;20029;-52
2021/06/29 05:17:38;;;;;;;;;;;;;;;31.77;38.14;99785.06;5102363;28;19957;-51
2021/06/29 05:20:04;;;;;;;;;;;;;;;31.94;38.00;99783.22;5108114;28;19912;-52
2021/06/29 05:22:48;;;;;;;;;;;;;;;31.95;38.69;99782.88;5098212;28;20053;-51
2021/06/29 05:25:14;;;;;;;;;;;;;;;32.26;38.17;99783.44;5113195;28;19916;-49
2021/06/29 05:27:39;;;;;;;;;;;;;;;32.53;38.13;99781.84;5112724;28;19933;-52
2021/06/29 05:30:05;;;;;;;;;;;;;;;32.82;37.52;99783.44;5111574;28;19916;-52
2021/06/29 05:32:31;;;;;;;;;;;;;;;32.39;38.05;99776.72;5112038;28;19912;-52
2021/06/29 05:34:56;;;;;;;;;;;;;;;32.41;38.47;99776.38;5111941;28;19919;-53
2021/06/29 05:37:21;;;;;;;;;;;;;;;32.47;38.44;99777.75;5112612;28;19911;-51
2021/06/29 05:39:46;;;;;;;;;;;;;;;32.65;38.48;99775.50;5112349;28;19912;-52
2021/06/29 05:42:12;;;;;;;;;;;;;;;33.06;37.88;99782.50;5112327;28;20402;-50
2021/06/29 05:44:37;;;;;;;;;;;;;;;33.20;37.71;99782.09;5112596;28;20316;-52
2021/06/29 05:47:06;;;;;;;;;;;;;;;33.94;36.68;99781.50;5112274;28;19919;-52
2021/06/29 05:49:31;;;;;;;;;;;;;;;34.03;36.92;99792.38;5112350;28;19912;-53
2021/06/29 05:51:56;;;;;;;;;;;;;;;34.25;36.09;99788.94;5112469;28;19935;-50
2021/06/29 05:54:22;;;;;;;;;;;;;;;34.33;35.31;99787.13;5112026;28;19947;-52
2021/06/29 05:56:47;;;;;;;;;;;;;;;34.58;35.46;99779.31;5112389;28;19919;-52
2021/06/29 05:59:12;;;;;;;;;;;;;;;35.18;34.05;99783.63;5112225;28;20371;-51
2021/06/29 06:01:38;;;;;;;;;;;;;;;34.50;35.41;99785.88;5112248;28;19966;-52
2021/06/29 06:04:03;;;;;;;;;;;;;;;34.51;35.07;99781.94;5112263;28;19920;-51
2021/06/29 06:06:28;;;;;;;;;;;;;;;34.76;34.49;99785.22;5112498;28;19919;-50
2021/06/29 06:08:54;;;;;;;;;;;;;;;35.44;33.55;99778.13;5112639;28;19915;-52
2021/06/29 06:11:19;;;;;;;;;;;;;;;35.58;33.14;99774.00;5111912;28;20247;-49
2021/06/29 06:13:44;;;;;;;;;;;;;;;35.12;33.78;99768.47;5112504;28;20382;-52
2021/06/29 06:16:09;;;;;;;;;;;;;;;34.94;34.14;99777.28;5110938;28;19912;-52
2021/06/29 06:18:36;;;;;;;;;;;;;;;35.34;34.03;99772.41;5112022;28;19935;-52
2021/06/29 06:21:01;;;;;;;;;;;;;;;35.84;32.88;99766.91;5111672;28;19916;-52
2021/06/29 06:23:26;;;;;;;;;;;;;;;34.66;34.50;99770.00;5111896;28;19912;-53
2021/06/29 06:25:52;;;;;;;;;;;;;;;34.81;34.56;99773.88;5112010;28;20375;-52
2021/06/29 06:28:17;;;;;;;;;;;;;;;35.07;34.80;99766.00;5111802;28;19996;-51
2021/06/29 06:30:42;;;;;;;;;;;;;;;35.84;33.94;99766.91;5111711;28;19916;-53
2021/06/29 06:33:08;;;;;;;;;;;;;;;36.09;33.37;99765.25;5111917;28;19962;-52
2021/06/29 06:35:33;;;;;;;;;;;;;;;35.94;33.00;99769.00;5111573;28;20071;-52
2021/06/29 06:37:58;;;;;;;;;;;;;;;35.98;32.94;99764.31;5111656;28;19974;-53
2021/06/29 06:40:23;;;;;;;;;;;;;;;35.85;33.02;99760.16;5111619;28;19912;-53
2021/06/29 06:42:49;;;;;;;;;;;;;;;36.15;33.08;99766.50;5111570;28;19989;-52
2021/06/29 06:45:14;;;;;;;;;;;;;;;35.86;32.33;99761.78;5111721;28;20021;-53
2021/06/29 06:47:39;;;;;;;;;;;;;;;35.74;32.46;99763.59;5111099;28;19919;-53
2021/06/29 06:50:05;;;;;;;;;;;;;;;36.06;32.93;99767.97;5111059;28;20022;-52
2021/06/29 06:52:32;;;;;;;;;;;;;;;36.25;32.92;99764.28;5111203;28;19918;-52
2021/06/29 06:54:58;;;;;;;;;;;;;;;36.73;32.36;99764.47;5111179;28;19988;-53
2021/06/29 06:57:23;;;;;;;;;;;;;;;36.28;32.42;99766.31;5111806;28;19920;-53
2021/06/29 06:59:48;;;;;;;;;;;;;;;36.29;32.99;99763.16;5112372;28;20463;-51
2021/06/29 07:02:14;;;;;;;;;;;;;;;35.70;33.30;99768.28;5112172;28;19915;-52
2021/06/29 07:04:40;;;;;;;;;;;;;;;36.59;32.70;99763.13;5111948;28;20380;-53
2021/06/29 07:07:05;;;;;;;;;;;;;;;36.37;32.16;99764.03;5111761;28;20267;-53
2021/06/29 07:09:30;;;;;;;;;;;;;;;36.25;33.38;99767.06;5111944;28;20387;-53
2021/06/29 07:11:56;;;;;;;;;;;;;;;36.39;33.30;99767.25;5131809;27;19998;-53
2021/06/29 07:14:22;;;;;;;;;;;;;;;36.72;31.61;99758.13;5132521;27;19919;-53
2021/06/29 07:16:47;;;;;;;;;;;;;;;37.47;31.37;99757.19;5113753;27;19912;-52
2021/06/29 07:19:12;;;;;;;;;;;;;;;36.72;31.81;99757.31;5132208;27;19984;-54
2021/06/29 07:21:38;;;;;;;;;;;;;;;35.94;32.82;99750.41;5117971;27;19912;-51
2021/06/29 07:24:03;;;;;;;;;;;;;;;35.56;33.50;99751.44;5111637;28;19968;-52
2021/06/29 07:26:29;;;;;;;;;;;;;;;36.30;32.97;99752.88;5111409;28;19919;-53
2021/06/29 07:28:54;;;;;;;;;;;;;;;37.00;31.68;99753.25;5111820;28;19965;-52
2021/06/29 07:31:19;;;;;;;;;;;;;;;36.59;32.25;99751.22;5111564;28;19923;-53
2021/06/29 07:33:45;;;;;;;;;;;;;;;36.57;32.12;99757.13;5111964;28;19916;-52
2021/06/29 07:36:12;;;;;;;;;;;;;;;36.63;32.06;99746.50;5111769;28;20292;-53
2021/06/29 07:38:37;;;;;;;;;;;;;;;37.34;31.73;99748.41;5111676;28;19939;-52
2021/06/29 07:41:03;;;;;;;;;;;;;;;37.25;31.25;99742.38;5111531;28;19912;-53
2021/06/29 07:43:28;;;;;;;;;;;;;;;37.42;31.74;99744.50;5111516;28;20306;-53
2021/06/29 07:45:53;;;;;;;;;;;;;;;37.58;30.40;99744.19;5111527;28;19911;-53
2021/06/29 07:48:18;;;;;;;;;;;;;;;37.30;30.80;99742.00;5111560;28;19912;-53
2021/06/29 07:50:44;;;;;;;;;;;;;;;38.17;29.73;99746.94;5110680;28;19919;-53
2021/06/29 07:53:09;;;;;;;;;;;;;;;37.96;30.39;99744.81;5111441;28;19994;-52
2021/06/29 07:55:34;;;;;;;;;;;;;;;36.93;32.22;99729.78;5111285;28;20539;-53
2021/06/29 07:57:59;;;;;;;;;;;;;;;37.15;31.87;99728.03;5111447;28;19939;-53
2021/06/29 08:00:25;;;;;;;;;;;;;;;37.76;30.64;99736.00;5111357;28;19942;-53
2021/06/29 08:02:50;;;;;;;;;;;;;;;37.62;30.47;99730.38;5110964;28;19911;-53
2021/06/29 08:05:15;;;;;;;;;;;;;;;37.83;30.54;99730.47;5111309;28;19923;-53
2021/06/29 08:07:41;;;;;;;;;;;;;;;37.87;30.68;99733.28;5110824;28;19911;-53
2021/06/29 08:10:06;;;;;;;;;;;;;;;38.17;29.21;99729.47;5111329;28;19915;-53
2021/06/29 08:12:32;;;;;;;;;;;;;;;38.90;28.17;99730.06;5111118;28;19912;-53
2021/06/29 08:14:57;;;;;;;;;;;;;;;38.11;29.21;99734.59;5110864;28;20307;-53
2021/06/29 08:17:23;;;;;;;;;;;;;;;37.86;29.79;99728.91;5111001;28;19931;-54
2021/06/29 08:19:48;;;;;;;;;;;;;;;37.86;29.65;99724.16;5110975;28;19919;-53
2021/06/29 08:22:14;;;;;;;;;;;;;;;37.72;29.92;99724.88;5110895;28;19919;-53
2021/06/29 08:24:39;;;;;;;;;;;;;;;38.72;28.63;99721.69;5110891;28;19911;-52
2021/06/29 08:27:04;;;;;;;;;;;;;;;37.89;29.61;99719.78;5110886;28;19923;-53
2021/06/29 08:29:30;;;;;;;;;;;;;;;37.52;29.43;99712.44;5110870;28;19919;-53
2021/06/29 08:31:55;;;;;;;;;;;;;;;37.99;29.33;99713.50;5111476;28;19916;-52
2021/06/29 08:34:20;;;;;;;;;;;;;;;38.28;28.40;99714.44;5111058;28;19934;-54
2021/06/29 08:36:46;;;;;;;;;;;;;;;39.52;26.55;99705.00;5110409;28;19918;-52
2021/06/29 08:39:12;;;;;;;;;;;;;;;38.89;26.87;99710.97;5112204;28;19916;-53
2021/06/29 08:41:38;;;;;;;;;;;;;;;38.46;27.96;99700.59;5114930;28;20267;-55
2021/06/29 08:44:03;;;;;;;;;;;;;;;37.80;28.12;99709.06;5114835;28;19928;-55
2021/06/29 08:46:28;;;;;;;;;;;;;;;37.41;28.55;99700.47;5096831;28;19912;-52
2021/06/29 08:48:54;;;;;;;;;;;;;;;38.20;27.88;99701.72;5114976;28;19911;-52
2021/06/29 08:51:19;;;;;;;;;;;;;;;37.58;28.37;99697.00;5114623;28;19916;-54
2021/06/29 08:53:44;;;;;;;;;;;;;;;36.89;29.69;99692.16;5096959;28;19919;-57
2021/06/29 08:56:15;;;;;;;;;;;;;;;37.09;29.71;99692.69;5114749;28;19934;-54
2021/06/29 08:58:40;;;;;;;;;;;;;;;37.74;28.49;99689.19;5114194;28;20372;-55
2021/06/29 09:01:05;;;;;;;;;;;;;;;38.30;27.23;99695.38;5114505;28;19916;-56
2021/06/29 09:03:31;;;;;;;;;;;;;;;37.07;30.00;99687.56;5114863;28;19947;-52
2021/06/29 09:05:56;;;;;;;;;;;;;;;36.57;30.23;99676.78;5114083;28;19919;-53
2021/06/29 09:08:22;;;;;;;;;;;;;;;36.38;30.25;99682.53;5114004;28;19912;-53
2021/06/29 09:11:05;;;;;;;;;;;;;;;36.44;31.11;99669.91;5114253;28;19916;-52
2021/06/29 09:13:30;;;;;;;;;;;;;;;37.02;29.53;99678.78;5114314;28;19912;-52
2021/06/29 09:15:56;;;;;;;;;;;;;;;36.86;29.48;99667.94;5114121;28;20010;-52
2021/06/29 09:18:28;;;;;;;;;;;;;;;36.57;30.42;99665.69;5114008;28;20007;-54
2021/06/29 09:20:53;;;;;;;;;;;;;;;36.52;30.16;99659.69;5113634;28;19969;-53
2021/06/29 09:23:26;;;;;;;;;;;;;;;36.78;30.45;99661.56;5113926;28;19911;-53
2021/06/29 09:25:51;;;;;;;;;;;;;;;36.44;30.35;99669.13;5114080;28;19911;-52
2021/06/29 09:28:20;;;;;;;;;;;;;;;36.34;31.34;99663.09;5113985;28;19927;-53
2021/06/29 09:30:50;;;;;;;;;;;;;;;36.45;30.25;99662.44;5113272;28;20014;-53
2021/06/29 09:33:35;;;;;;;;;;;;;;;36.65;30.52;99654.69;5113447;28;19919;-53
2021/06/29 09:36:01;;;;;;;;;;;;;;;37.08;29.65;99657.84;5113618;28;19933;-53
2021/06/29 09:38:27;;;;;;;;;;;;;;;37.40;29.80;99658.06;5113777;28;20049;-54
2021/06/29 09:41:16;;;;;;;;;;;;;;;37.56;29.86;99657.75;5095591;28;19922;-52
2021/06/29 09:43:45;;;;;;;;;;;;;;;37.30;28.71;99656.00;5113622;28;19930;-53
2021/06/29 09:46:11;;;;;;;;;;;;;;;36.90;28.11;99652.13;5113640;28;20049;-53
2021/06/29 09:48:40;;;;;;;;;;;;;;;36.53;28.76;99656.56;5113303;28;19916;-53
2021/06/29 09:51:27;;;;;;;;;;;;;;;36.71;28.62;99640.13;5112970;28;19919;-52
2021/06/29 09:53:54;;;;;;;;;;;;;;;36.60;29.17;99630.91;5113180;28;20350;-51
2021/06/29 09:56:19;;;;;;;;;;;;;;;36.73;28.44;99639.75;5113134;28;19918;-53
2021/06/29 09:58:45;;;;;;;;;;;;;;;36.44;29.46;99641.44;5113767;28;19911;-52
2021/06/29 10:01:11;;;;;;;;;;;;;;;36.70;29.34;99632.97;5113528;28;19923;-52
2021/06/29 10:03:37;;;;;;;;;;;;;;;37.59;29.02;99632.00;5113646;28;20039;-52
2021/06/29 10:06:09;;;;;;;;;;;;;;;37.21;29.16;99627.84;5113742;28;20292;-52
2021/06/29 10:08:34;;;;;;;;;;;;;;;37.32;28.93;99632.28;5113302;28;19916;-52
2021/06/29 10:11:03;;;;;;;;;;;;;;;37.37;28.54;99625.53;5113242;28;19924;-54
2021/06/29 10:13:31;;;;;;;;;;;;;;;37.53;27.82;99620.47;5113462;28;19951;-56
2021/06/29 10:15:56;;;;;;;;;;;;;;;37.43;28.05;99621.22;5113206;28;19955;-54
2021/06/29 10:18:22;;;;;;;;;;;;;;;37.40;27.93;99622.00;5094772;28;19985;-51
2021/06/29 10:23:16;;;;;;;;;;;;;;;36.28;30.08;99608.44;5095005;28;19923;-53
2021/06/29 10:25:41;;;;;;;;;;;;;;;36.59;29.94;99607.13;5113043;28;19912;-55
2021/06/29 10:28:06;;;;;;;;;;;;;;;36.68;29.13;99596.53;5112986;28;19911;-53
2021/06/29 10:30:32;;;;;;;;;;;;;;;37.05;28.90;99605.91;5112728;28;19916;-51
2021/06/29 10:32:57;;;;;;;;;;;;;;;36.93;27.29;99599.50;5113082;28;19934;-53
2021/06/29 10:35:22;;;;;;;;;;;;;;;36.84;27.55;99599.03;5112651;28;19912;-55
2021/06/29 10:37:48;;;;;;;;;;;;;;;36.89;27.44;99595.91;5094310;28;19988;-53
2021/06/29 10:40:14;;;;;;;;;;;;;;;37.05;27.60;99587.31;5112389;28;19912;-53
2021/06/29 10:42:42;;;;;;;;;;;;;;;37.55;26.32;99587.59;5094065;28;19919;-53
2021/06/29 10:45:11;;;;;;;;;;;;;;;37.56;26.09;99582.81;5112838;28;19927;-53
2021/06/29 10:47:36;;;;;;;;;;;;;;;37.50;24.67;99576.84;5112636;28;20311;-53
2021/06/29 10:50:03;;;;;;;;;;;;;;;37.37;25.66;99581.16;5112342;28;19922;-52
2021/06/29 10:52:30;;;;;;;;;;;;;;;37.46;26.50;99569.72;5112311;28;20232;-54
2021/06/29 10:54:59;;;;;;;;;;;;;;;37.92;27.20;99571.88;5112058;28;20044;-53
2021/06/29 10:57:25;;;;;;;;;;;;;;;38.68;25.87;99568.00;5112499;28;19923;-53
2021/06/29 10:59:51;;;;;;;;;;;;;;;38.61;25.36;99568.00;5111896;28;19912;-53
2021/06/29 11:02:32;;;;;;;;;;;;;;;37.64;25.95;99558.69;5111556;28;19916;-53
2021/06/29 11:04:58;;;;;;;;;;;;;;;37.40;26.42;99560.97;5112458;28;19912;-53
2021/06/29 11:07:29;;;;;;;;;;;;;;;37.59;26.04;99562.63;5111990;28;19912;-52
2021/06/29 11:09:55;;;;;;;;;;;;;;;37.21;26.36;99550.97;5114205;27;19916;-52
2021/06/29 11:12:23;;;;;;;;;;;;;;;38.25;25.58;99542.19;5132583;27;20298;-54
2021/06/29 11:14:49;;;;;;;;;;;;;;;37.78;25.56;99541.31;5132532;27;19911;-53
2021/06/29 11:17:18;;;;;;;;;;;;;;;37.20;25.51;99534.72;5132090;27;19938;-53
2021/06/29 11:20:03;;;;;;;;;;;;;;;37.55;23.76;99534.88;5131750;27;19976;-53
2021/06/29 11:22:46;;;;;;;;;;;;;;;37.59;26.03;99526.56;5091212;28;19995;-53
2021/06/29 11:25:11;;;;;;;;;;;;;;;38.42;24.77;99516.38;5091668;28;20012;-53
2021/06/29 11:27:55;;;;;;;;;;;;;;;37.78;25.76;99525.44;5091156;28;19962;-53
2021/06/29 11:30:39;;;;;;;;;;;;;;;37.28;26.72;99523.28;5091258;28;19952;-54
2021/06/29 11:33:43;;;;;;;;;;;;;;;37.39;25.33;99520.53;5091466;28;19912;-53
2021/06/29 11:36:24;;;;;;;;;;;;;;;37.76;24.96;99513.94;4989374;28;19993;-52
2021/06/29 11:38:49;;;;;;;;;;;;;;;37.82;25.28;99522.69;4988901;28;20330;-52
2021/06/29 11:41:24;;;;;;;;;;;;;;;37.45;25.16;99513.44;5029380;28;20348;-54
2021/06/29 11:43:49;;;;;;;;;;;;;;;37.46;25.02;99508.66;5091326;28;19938;-53
2021/06/29 11:46:33;;;;;;;;;;;;;;;37.01;27.81;99510.81;5073253;28;19912;-54
2021/06/29 11:49:07;;;;;;;;;;;;;;;36.90;28.84;99506.03;5091395;28;19916;-54
2021/06/29 11:51:52;;;;;;;;;;;;;;;37.84;26.85;99507.19;5090916;28;19916;-53
2021/06/29 11:54:33;;;;;;;;;;;;;;;38.45;25.70;99498.91;5091109;28;19990;-54
2021/06/29 11:56:59;;;;;;;;;;;;;;;37.90;27.26;99493.72;5091170;28;19919;-53
2021/06/29 11:59:28;;;;;;;;;;;;;;;37.72;28.00;99491.72;5091374;28;19912;-54
2021/06/29 12:02:06;;;;;;;;;;;;;;;37.72;27.64;99488.16;5091720;28;19916;-53
2021/06/29 12:04:31;;;;;;;;;;;;;;;38.00;26.25;99484.59;5091566;28;19977;-54
2021/06/29 12:07:00;;;;;;;;;;;;;;;38.48;25.82;99475.91;5091269;28;19916;-54
2021/06/29 12:09:32;;;;;;;;;;;;;;;37.44;27.95;99486.06;5090933;28;19923;-52
2021/06/29 12:12:16;;;;;;;;;;;;;;;37.19;27.76;99472.13;5090649;28;19916;-53
2021/06/29 12:14:42;;;;;;;;;;;;;;;37.56;27.56;99474.59;5098436;27;20399;-54
2021/06/29 12:17:07;;;;;;;;;;;;;;;37.69;25.96;99472.28;5123745;27;19924;-53
2021/06/29 12:19:32;;;;;;;;;;;;;;;37.60;25.79;99471.84;5118503;27;19937;-53
2021/06/29 12:21:57;;;;;;;;;;;;;;;37.99;26.09;99468.38;5125953;27;20010;-54
2021/06/29 12:24:23;;;;;;;;;;;;;;;37.45;26.79;99471.00;5126104;27;19959;-54
2021/06/29 12:26:48;;;;;;;;;;;;;;;37.24;26.32;99464.19;5133809;27;19913;-40
2021/06/29 12:29:13;;;;;;;;;;;;;;;37.34;25.16;99462.66;5136192;27;19911;-40
2021/06/29 12:31:39;;;;;;;;;;;;;;;37.81;24.17;99451.69;5117174;27;20022;-40
2021/06/29 12:34:04;;;;;;;;;;;;;;;38.39;25.14;99449.72;5117372;27;20343;-40
2021/06/29 12:36:29;;;;;;;;;;;;;;;37.96;25.13;99433.84;5135230;27;19919;-40
2021/06/29 12:38:55;;;;;;;;;;;;;;;38.14;25.46;99440.22;5135747;27;19912;-39
2021/06/29 12:41:22;;;;;;;;;;;;;;;37.91;25.43;99442.56;5126317;27;19919;-41
2021/06/29 12:43:48;;;;;;;;;;;;;;;38.11;25.65;99441.00;5114677;28;19912;-41
2021/06/29 12:46:17;;;;;;;;;;;;;;;37.72;24.27;99439.00;5096398;28;19911;-40
2021/06/29 12:49:06;;;;;;;;;;;;;;;38.33;24.01;99439.00;5114686;28;19912;-40